Terminal Aerodrome Forecast
Issued by NWS Sterling, VA

Current Version | Previous Version | Graphics & Text | Print | Product List | Glossary On
Versions: 1 2 3 4 5 6 7 8 9 10 11 12 13 14 15 16 17 18 19 20 21 22 23 24 25 26
388
FTUS41 KLWX 161440 AAA
TAFIAD
TAF AMD
KIAD 161440Z 1615/1718 33012G25KT P6SM BKN090
     FM161700 33014G25KT P6SM SCT120
     FM162200 33011KT P6SM FEW060
     FM170100 33007KT P6SM FEW250
     FM170700 VRB03KT P6SM SKC=

USA.gov is the U.S. government's official web portal to all federal, state and local government web resources and services.